Time;durP1;ratioP1;P1;durP2;ratioP2;P2;SDS_P1;SDS_P2;PMS_P1;PMS_P2;Temp;Humidity;BMP_temperature;BMP_pressure;BME280_temperature;BME280_humidity;BME280_pressure;Samples;Min_cycle;Max_cycle;Signal;HPM_P1;HPM_P2
2023/09/19 00:00:57;;;;;;;9.93;1.27;;;15.40;99.90;;;;;;4964875;28;20046;-88
2023/09/19 00:03:25;;;;;;;7.38;1.00;;;15.40;99.90;;;;;;4946355;29;20086;-89
2023/09/19 00:05:51;;;;;;;12.85;1.27;;;15.40;99.90;;;;;;4962022;28;20039;-89
2023/09/19 00:08:16;;;;;;;5.85;0.80;;;15.30;99.90;;;;;;4956697;29;20066;-88
2023/09/19 00:10:43;;;;;;;6.55;0.80;;;15.30;99.90;;;;;;4937582;29;20027;-88
2023/09/19 00:13:13;;;;;;;9.48;0.90;;;15.30;99.90;;;;;;4962592;28;20027;-89
2023/09/19 00:15:41;;;;;;;10.93;1.05;;;15.30;99.90;;;;;;4937526;29;20239;-88
2023/09/19 00:18:08;;;;;;;11.07;1.85;;;15.30;99.90;;;;;;4948527;29;20059;-89
2023/09/19 00:20:36;;;;;;;5.75;1.00;;;15.40;99.90;;;;;;4957345;28;20475;-89
2023/09/19 00:23:08;;;;;;;5.75;1.38;;;15.30;99.90;;;;;;4954255;28;20170;-89
2023/09/19 00:25:35;;;;;;;10.02;1.50;;;15.30;99.90;;;;;;4950296;28;20479;-88
2023/09/19 00:28:01;;;;;;;10.27;1.50;;;15.30;99.90;;;;;;4953450;28;20039;-89
2023/09/19 00:30:27;;;;;;;12.98;1.65;;;15.40;99.90;;;;;;4955633;28;20024;-88
2023/09/19 00:32:53;;;;;;;12.73;1.30;;;15.30;99.90;;;;;;4950419;28;20150;-89
2023/09/19 00:35:24;;;;;;;16.10;2.13;;;15.30;99.90;;;;;;4938205;29;20058;-88
2023/09/19 00:37:50;;;;;;;10.32;1.63;;;15.30;99.90;;;;;;4955920;28;20087;-88
2023/09/19 00:40:16;;;;;;;14.55;1.75;;;15.30;99.90;;;;;;4959511;28;20024;-89
2023/09/19 00:42:43;;;;;;;8.82;1.17;;;15.30;99.90;;;;;;4920215;29;20028;-88
2023/09/19 00:45:11;;;;;;;10.38;1.20;;;15.30;99.90;;;;;;4942047;29;20035;-89
2023/09/19 00:47:37;;;;;;;8.82;1.55;;;15.20;99.90;;;;;;4952120;28;20019;-89
2023/09/19 00:50:07;;;;;;;9.40;1.40;;;15.10;99.90;;;;;;4961276;28;20043;-88
2023/09/19 00:52:39;;;;;;;11.88;2.05;;;15.10;99.90;;;;;;4945446;29;20058;-88
2023/09/19 00:55:07;;;;;;;14.30;2.30;;;15.10;99.90;;;;;;4956089;28;20034;-88
2023/09/19 00:57:33;;;;;;;18.75;2.30;;;15.00;99.90;;;;;;4944641;28;20054;-88
2023/09/19 01:00:04;;;;;;;13.55;1.23;;;15.00;99.90;;;;;;4953386;28;20031;-88
2023/09/19 01:02:31;;;;;;;10.48;1.52;;;15.00;99.90;;;;;;4969417;28;20479;-88
2023/09/19 01:04:57;;;;;;;7.13;1.40;;;15.00;99.90;;;;;;4939278;29;20043;-89
2023/09/19 01:07:22;;;;;;;10.68;1.45;;;15.00;99.90;;;;;;4937623;29;20038;-88
2023/09/19 01:09:49;;;;;;;13.68;1.55;;;14.90;99.90;;;;;;4966073;28;20035;-89
2023/09/19 01:12:23;;;;;;;8.95;1.15;;;14.90;99.90;;;;;;4956613;28;20074;-88
2023/09/19 01:15:04;;;;;;;7.82;1.17;;;14.90;99.90;;;;;;4962835;28;20038;-88
2023/09/19 01:17:40;;;;;;;13.05;1.77;;;14.90;99.90;;;;;;4937204;29;20130;-87
2023/09/19 01:20:14;;;;;;;9.32;0.95;;;14.80;99.90;;;;;;4952065;28;20062;-88
2023/09/19 01:22:54;;;;;;;7.65;1.67;;;14.80;99.90;;;;;;4935736;29;20046;-88
2023/09/19 01:25:28;;;;;;;8.27;1.17;;;14.80;99.90;;;;;;4950471;28;20032;-88
2023/09/19 01:28:13;;;;;;;10.40;1.58;;;14.80;99.90;;;;;;4953038;28;20035;-88
2023/09/19 01:30:43;;;;;;;7.97;1.30;;;14.80;99.90;;;;;;4953979;28;20089;-88
2023/09/19 01:33:10;;;;;;;13.20;1.23;;;14.70;99.90;;;;;;4958852;28;20047;-88
2023/09/19 01:35:38;;;;;;;8.93;0.95;;;14.70;99.90;;;;;;4934942;29;20059;-88
2023/09/19 01:38:06;;;;;;;11.82;1.08;;;14.70;99.90;;;;;;4934898;29;20030;-88
2023/09/19 01:40:35;;;;;;;9.13;1.08;;;14.80;99.90;;;;;;4951814;28;20559;-89
2023/09/19 01:43:17;;;;;;;11.65;1.58;;;14.70;99.90;;;;;;4966370;28;20034;-88
2023/09/19 01:46:14;;;;;;;13.57;1.10;;;14.80;99.90;;;;;;4953077;28;20039;-88
2023/09/19 01:49:06;;;;;;;14.63;1.30;;;14.80;99.90;;;;;;4945414;29;20142;-88
2023/09/19 01:51:43;;;;;;;13.98;1.20;;;14.90;99.90;;;;;;4940773;28;20072;-87
2023/09/19 01:54:16;;;;;;;13.00;1.38;;;14.80;99.90;;;;;;4958958;28;20039;-88
2023/09/19 01:56:44;;;;;;;11.32;1.38;;;14.70;99.90;;;;;;4949282;28;20032;-87
2023/09/19 01:59:17;;;;;;;12.10;1.30;;;14.70;99.90;;;;;;4950581;28;20035;-88
2023/09/19 02:01:45;;;;;;;12.18;1.13;;;14.60;99.90;;;;;;4953300;28;20031;-88
2023/09/19 02:04:11;;;;;;;7.38;1.02;;;14.50;99.90;;;;;;4958863;28;20364;-89
2023/09/19 02:06:40;;;;;;;11.43;1.17;;;14.40;99.90;;;;;;4954005;29;20027;-88
2023/09/19 02:09:06;;;;;;;14.52;1.75;;;14.30;99.90;;;;;;4953234;28;20023;-88
2023/09/19 02:11:32;;;;;;;13.38;1.45;;;14.30;99.90;;;;;;4955260;28;20027;-87
2023/09/19 02:13:59;;;;;;;8.32;1.05;;;14.30;99.90;;;;;;4953227;29;20040;-88
2023/09/19 02:16:24;;;;;;;9.88;1.20;;;14.10;99.90;;;;;;4952986;28;20024;-88
2023/09/19 02:18:51;;;;;;;10.43;1.05;;;14.10;99.90;;;;;;4953981;28;20031;-88
2023/09/19 02:21:21;;;;;;;10.75;1.88;;;14.10;99.90;;;;;;4963876;28;20499;-88
2023/09/19 02:23:51;;;;;;;6.65;1.45;;;14.00;99.90;;;;;;4930198;29;20572;-88
2023/09/19 02:26:18;;;;;;;7.57;1.27;;;14.00;99.90;;;;;;4952344;28;20058;-87
2023/09/19 02:28:45;;;;;;;11.90;1.50;;;14.00;99.90;;;;;;4951285;29;20027;-87
2023/09/19 02:31:11;;;;;;;10.00;1.15;;;13.90;99.90;;;;;;4951755;28;20022;-88
2023/09/19 02:33:37;;;;;;;11.75;1.00;;;13.90;99.90;;;;;;4951686;28;20515;-88
2023/09/19 02:36:03;;;;;;;12.13;1.40;;;13.80;99.90;;;;;;4954162;28;20032;-87
2023/09/19 02:38:29;;;;;;;13.32;1.63;;;13.80;99.90;;;;;;4938726;29;20030;-88
2023/09/19 02:40:55;;;;;;;12.07;1.17;;;13.70;99.90;;;;;;4963434;28;20027;-88
2023/09/19 02:43:21;;;;;;;8.20;0.85;;;13.70;99.90;;;;;;4952670;29;20027;-87
2023/09/19 02:45:49;;;;;;;8.35;0.80;;;13.70;99.90;;;;;;4947094;28;20055;-87
2023/09/19 02:48:15;;;;;;;12.05;1.15;;;13.60;99.90;;;;;;4948973;29;20067;-87
2023/09/19 02:50:41;;;;;;;8.95;0.98;;;13.60;99.90;;;;;;4929956;29;20384;-88
2023/09/19 02:53:07;;;;;;;9.63;1.70;;;13.60;99.90;;;;;;4948990;29;20194;-88
2023/09/19 02:55:33;;;;;;;9.65;0.80;;;13.50;99.90;;;;;;4951634;28;20043;-87
2023/09/19 02:58:00;;;;;;;7.63;0.90;;;13.50;99.90;;;;;;4952386;28;20058;-88
2023/09/19 03:00:27;;;;;;;11.60;1.20;;;13.50;99.90;;;;;;4953308;29;20023;-87
2023/09/19 03:02:56;;;;;;;10.23;1.00;;;13.40;99.90;;;;;;4950847;28;20039;-88
2023/09/19 03:05:23;;;;;;;7.18;1.10;;;13.40;99.90;;;;;;4952100;28;20031;-88
2023/09/19 03:07:50;;;;;;;12.95;1.27;;;13.40;99.90;;;;;;4939313;28;20035;-88
2023/09/19 03:10:17;;;;;;;11.25;1.10;;;13.40;99.90;;;;;;4955586;29;20078;-88
2023/09/19 03:12:43;;;;;;;17.23;1.10;;;13.30;99.90;;;;;;4952879;29;20051;-87
2023/09/19 03:15:09;;;;;;;12.05;1.02;;;13.30;99.90;;;;;;4939736;29;20035;-88
2023/09/19 03:17:35;;;;;;;12.20;1.27;;;13.20;99.90;;;;;;4955045;28;20069;-87
2023/09/19 03:20:02;;;;;;;9.00;1.05;;;13.20;99.90;;;;;;4955630;28;20550;-88
2023/09/19 03:22:28;;;;;;;11.00;0.90;;;13.20;99.90;;;;;;4957826;28;20503;-88
2023/09/19 03:24:53;;;;;;;8.52;0.85;;;13.20;99.90;;;;;;4947660;28;20077;-88
2023/09/19 03:27:20;;;;;;;9.18;1.15;;;13.10;99.90;;;;;;4941496;29;20029;-87
2023/09/19 03:29:46;;;;;;;11.70;1.63;;;13.10;99.90;;;;;;4939773;28;20122;-88
2023/09/19 03:32:11;;;;;;;14.80;0.90;;;13.10;99.90;;;;;;4978737;28;20074;-88
2023/09/19 03:34:43;;;;;;;7.22;0.80;;;13.10;99.90;;;;;;4951232;28;20494;-88
2023/09/19 03:37:09;;;;;;;12.20;1.52;;;13.10;99.90;;;;;;4966259;28;20048;-87
2023/09/19 03:39:34;;;;;;;5.22;0.95;;;13.10;99.90;;;;;;4954849;28;20380;-87
2023/09/19 03:42:01;;;;;;;8.40;1.00;;;13.10;99.90;;;;;;4958758;28;20023;-86
2023/09/19 03:44:26;;;;;;;8.90;1.23;;;13.00;99.90;;;;;;4957567;28;20033;-87
2023/09/19 03:46:52;;;;;;;5.68;0.70;;;13.00;99.90;;;;;;4956302;28;20501;-86
2023/09/19 03:49:17;;;;;;;6.38;0.90;;;13.00;99.90;;;;;;4957468;28;20086;-87
2023/09/19 03:51:43;;;;;;;9.27;0.73;;;13.00;99.90;;;;;;4956601;29;20495;-87
2023/09/19 03:54:08;;;;;;;10.05;0.98;;;13.00;99.90;;;;;;4965459;28;20042;-88
2023/09/19 03:56:34;;;;;;;10.98;1.10;;;13.00;99.90;;;;;;4938972;29;20433;-88
2023/09/19 03:58:59;;;;;;;12.25;2.72;;;13.00;99.90;;;;;;4954927;28;20035;-88
2023/09/19 04:01:27;;;;;;;10.30;1.02;;;13.00;99.90;;;;;;4940051;28;20026;-86
2023/09/19 04:03:53;;;;;;;8.93;1.00;;;13.00;99.90;;;;;;4938461;29;20443;-87
2023/09/19 04:06:19;;;;;;;8.13;0.65;;;13.00;99.90;;;;;;4955272;28;20035;-87
2023/09/19 04:08:44;;;;;;;7.22;0.85;;;13.00;99.90;;;;;;4953666;28;20448;-87
2023/09/19 04:11:10;;;;;;;6.45;0.70;;;13.00;99.90;;;;;;4938055;29;20027;-87
2023/09/19 04:13:36;;;;;;;13.18;1.58;;;13.00;99.90;;;;;;4954509;29;20038;-88
2023/09/19 04:16:06;;;;;;;10.15;0.90;;;13.10;99.90;;;;;;4954178;28;20495;-87
2023/09/19 04:18:33;;;;;;;8.98;1.15;;;13.10;99.90;;;;;;4937256;29;20494;-87
2023/09/19 04:21:02;;;;;;;10.93;1.15;;;13.10;99.90;;;;;;4954609;29;20122;-87
2023/09/19 04:23:28;;;;;;;13.13;0.82;;;13.10;99.90;;;;;;4939583;29;20062;-88
2023/09/19 04:25:53;;;;;;;8.00;0.82;;;13.10;99.90;;;;;;4966482;28;20063;-88
2023/09/19 04:28:19;;;;;;;9.10;0.60;;;13.10;99.90;;;;;;4958278;28;20130;-88
2023/09/19 04:30:44;;;;;;;9.20;1.13;;;13.10;99.90;;;;;;4956187;28;20030;-88
2023/09/19 04:33:11;;;;;;;16.40;0.90;;;13.10;99.90;;;;;;4939528;29;20126;-88
2023/09/19 04:35:38;;;;;;;8.40;0.70;;;13.20;99.90;;;;;;4953462;28;20086;-87
2023/09/19 04:38:06;;;;;;;8.70;0.65;;;13.20;99.90;;;;;;4940392;29;20073;-88
2023/09/19 04:40:33;;;;;;;8.40;0.68;;;13.20;99.90;;;;;;4938713;29;20058;-88
2023/09/19 04:42:59;;;;;;;5.00;0.63;;;13.20;99.90;;;;;;4955883;28;20475;-88
2023/09/19 04:45:29;;;;;;;6.53;0.70;;;13.20;99.90;;;;;;4954207;28;20035;-88
2023/09/19 04:47:56;;;;;;;4.70;0.80;;;13.20;99.90;;;;;;4937844;28;20039;-88
2023/09/19 04:50:22;;;;;;;11.70;0.88;;;13.20;99.90;;;;;;4955979;28;20015;-88
2023/09/19 04:52:51;;;;;;;6.95;0.68;;;13.20;99.90;;;;;;4953547;28;20059;-88
2023/09/19 04:55:18;;;;;;;8.45;0.80;;;13.20;99.90;;;;;;4953407;28;20050;-87
2023/09/19 04:57:48;;;;;;;5.43;1.15;;;13.20;99.90;;;;;;4953880;28;20023;-88
2023/09/19 05:00:16;;;;;;;10.93;0.77;;;13.20;99.90;;;;;;4952356;29;20042;-87
2023/09/19 05:02:42;;;;;;;7.85;0.88;;;13.20;99.90;;;;;;4952031;28;20039;-88
2023/09/19 05:05:10;;;;;;;10.32;1.15;;;13.20;99.90;;;;;;4945989;28;20072;-88
2023/09/19 05:07:37;;;;;;;5.95;0.70;;;13.20;99.90;;;;;;4969993;28;20023;-88
2023/09/19 05:10:05;;;;;;;10.52;1.00;;;13.30;99.90;;;;;;4953587;28;20031;-87
2023/09/19 05:12:32;;;;;;;7.93;0.63;;;13.30;99.90;;;;;;4957146;28;20027;-87
2023/09/19 05:14:58;;;;;;;8.00;1.23;;;13.30;99.90;;;;;;4954580;29;20047;-88
2023/09/19 05:17:24;;;;;;;13.50;1.25;;;13.30;99.90;;;;;;4952212;28;20031;-88
2023/09/19 05:19:50;;;;;;;6.57;0.70;;;13.30;99.90;;;;;;4952386;29;20035;-86
2023/09/19 05:22:15;;;;;;;9.20;1.13;;;13.30;99.90;;;;;;4950971;28;20020;-88
2023/09/19 05:24:41;;;;;;;9.88;0.90;;;13.30;99.90;;;;;;4949777;29;20123;-88
2023/09/19 05:27:07;;;;;;;6.90;0.90;;;13.30;99.90;;;;;;4935382;28;20019;-88
2023/09/19 05:29:33;;;;;;;6.97;0.80;;;13.30;99.90;;;;;;4933567;29;20114;-88
2023/09/19 05:31:59;;;;;;;8.90;1.48;;;13.30;99.90;;;;;;4954499;28;20039;-87
2023/09/19 05:34:25;;;;;;;8.95;0.90;;;13.30;99.90;;;;;;4951911;29;20047;-87
2023/09/19 05:36:52;;;;;;;13.70;1.00;;;13.40;99.90;;;;;;4935353;29;20086;-87
2023/09/19 05:39:17;;;;;;;8.40;1.15;;;13.40;99.90;;;;;;4932541;29;20182;-88
2023/09/19 05:41:43;;;;;;;7.03;0.60;;;13.40;99.90;;;;;;4948658;28;20155;-87
2023/09/19 05:44:09;;;;;;;7.20;0.70;;;13.40;99.90;;;;;;4956251;28;20034;-88
2023/09/19 05:46:34;;;;;;;9.55;1.30;;;13.40;99.90;;;;;;4950547;29;20027;-87
2023/09/19 05:49:00;;;;;;;8.07;0.90;;;13.40;99.90;;;;;;4956108;28;20490;-88
2023/09/19 05:51:28;;;;;;;9.50;0.80;;;13.50;99.90;;;;;;4955439;28;20038;-89
2023/09/19 05:53:54;;;;;;;7.90;0.80;;;13.50;99.90;;;;;;4932656;29;20031;-88
2023/09/19 05:56:20;;;;;;;12.93;1.05;;;13.50;99.90;;;;;;4933203;29;20040;-88
2023/09/19 05:58:46;;;;;;;10.25;1.08;;;13.50;99.90;;;;;;4953485;28;20022;-88
2023/09/19 06:01:11;;;;;;;8.25;1.33;;;13.60;99.90;;;;;;4933988;29;20055;-88
2023/09/19 06:03:37;;;;;;;10.18;0.98;;;13.60;99.90;;;;;;4945420;28;20508;-88
2023/09/19 06:06:04;;;;;;;10.48;1.00;;;13.60;99.90;;;;;;4953535;28;20023;-87
2023/09/19 06:08:31;;;;;;;7.50;0.80;;;13.60;99.90;;;;;;4951769;29;20038;-87
2023/09/19 06:10:56;;;;;;;9.80;0.90;;;13.60;99.90;;;;;;4953825;29;20031;-87
2023/09/19 06:13:23;;;;;;;11.07;1.23;;;13.70;99.90;;;;;;4953150;28;20024;-86
2023/09/19 06:15:49;;;;;;;12.70;1.10;;;13.70;99.90;;;;;;4968517;28;20030;-87
2023/09/19 06:18:19;;;;;;;7.03;0.80;;;13.70;99.90;;;;;;4951308;28;20055;-87
2023/09/19 06:20:46;;;;;;;5.28;0.68;;;13.80;99.90;;;;;;4953247;29;20027;-87
2023/09/19 06:23:11;;;;;;;9.40;0.80;;;13.70;99.90;;;;;;4954143;28;20027;-87
2023/09/19 06:25:37;;;;;;;9.32;0.85;;;13.80;99.90;;;;;;4971787;28;20034;-87
2023/09/19 06:28:05;;;;;;;7.40;0.90;;;13.90;99.90;;;;;;4954602;28;20035;-87
2023/09/19 06:30:30;;;;;;;12.95;1.63;;;13.90;99.90;;;;;;4935797;29;20561;-88
2023/09/19 06:32:57;;;;;;;8.05;0.75;;;13.90;99.90;;;;;;4951550;28;20059;-87
2023/09/19 06:35:23;;;;;;;8.10;1.05;;;14.00;99.90;;;;;;4936613;29;20043;-86
2023/09/19 06:37:49;;;;;;;11.65;1.00;;;14.00;99.90;;;;;;4935882;29;20031;-87
2023/09/19 06:40:15;;;;;;;7.90;1.02;;;14.10;99.90;;;;;;4938277;29;20023;-87
2023/09/19 06:42:46;;;;;;;4.97;0.63;;;14.10;99.90;;;;;;4961779;28;20027;-87
2023/09/19 06:45:13;;;;;;;8.05;1.13;;;14.20;99.90;;;;;;4974120;28;20034;-87
2023/09/19 06:47:39;;;;;;;5.43;0.80;;;14.20;99.90;;;;;;4963295;28;20046;-87
2023/09/19 06:50:06;;;;;;;13.63;1.25;;;14.20;99.90;;;;;;4955596;29;20039;-88
2023/09/19 06:52:32;;;;;;;14.75;1.42;;;14.30;99.90;;;;;;4965006;28;20019;-87
2023/09/19 06:54:58;;;;;;;7.50;0.80;;;14.30;99.90;;;;;;4939532;29;20035;-86
2023/09/19 06:57:24;;;;;;;9.25;0.93;;;14.30;99.90;;;;;;4969463;28;20031;-87
2023/09/19 06:59:50;;;;;;;9.18;0.95;;;14.40;99.90;;;;;;4957896;28;20027;-87
2023/09/19 07:02:15;;;;;;;13.63;1.20;;;14.40;99.90;;;;;;4958942;28;20023;-88
2023/09/19 07:04:41;;;;;;;13.48;1.10;;;14.50;99.90;;;;;;4955302;29;20035;-87
2023/09/19 07:07:10;;;;;;;9.52;1.20;;;14.60;99.90;;;;;;4940223;29;20042;-87
2023/09/19 07:09:35;;;;;;;8.95;0.90;;;14.60;99.90;;;;;;4952140;28;20032;-88
2023/09/19 07:12:01;;;;;;;12.95;1.13;;;14.60;99.90;;;;;;4948387;28;20039;-87
2023/09/19 07:14:27;;;;;;;10.82;1.00;;;14.60;99.90;;;;;;4955266;29;20342;-87
2023/09/19 07:16:52;;;;;;;8.25;0.75;;;14.70;99.90;;;;;;4961923;28;20542;-87
2023/09/19 07:19:18;;;;;;;12.20;1.23;;;14.80;99.90;;;;;;4956199;28;20386;-87
2023/09/19 07:21:43;;;;;;;10.60;0.80;;;14.80;99.90;;;;;;4961660;28;20027;-87
2023/09/19 07:24:13;;;;;;;9.30;0.82;;;14.90;99.90;;;;;;4973372;28;20027;-87
2023/09/19 07:26:39;;;;;;;12.13;1.70;;;15.00;99.90;;;;;;4955047;28;20031;-86
2023/09/19 07:29:06;;;;;;;10.07;1.50;;;15.00;99.90;;;;;;4955751;28;20027;-87
2023/09/19 07:31:32;;;;;;;13.32;2.40;;;15.10;99.90;;;;;;4938810;29;20484;-88
2023/09/19 07:33:57;;;;;;;15.60;1.30;;;15.10;99.90;;;;;;4966180;28;20030;-87
2023/09/19 07:36:24;;;;;;;16.42;1.10;;;15.10;99.90;;;;;;4972032;28;20118;-87
2023/09/19 07:38:49;;;;;;;13.02;1.13;;;15.20;99.90;;;;;;4956476;28;20100;-87
2023/09/19 07:41:15;;;;;;;9.45;1.08;;;15.20;99.90;;;;;;4959067;28;20035;-88
2023/09/19 07:43:40;;;;;;;15.32;1.35;;;15.30;99.90;;;;;;4955324;28;20569;-88
2023/09/19 07:46:08;;;;;;;8.02;1.13;;;15.30;99.90;;;;;;4958987;28;20031;-87
2023/09/19 07:48:38;;;;;;;15.68;1.42;;;15.40;99.90;;;;;;4953893;29;20031;-87
2023/09/19 07:51:06;;;;;;;12.85;1.80;;;15.40;99.90;;;;;;4970821;28;20109;-88
2023/09/19 07:53:34;;;;;;;11.90;1.20;;;15.50;99.90;;;;;;4955850;28;20028;-87
2023/09/19 07:56:04;;;;;;;9.75;1.52;;;15.50;99.90;;;;;;4957570;28;20043;-87
2023/09/19 07:58:31;;;;;;;14.55;1.85;;;15.60;99.90;;;;;;4962662;28;20023;-87
2023/09/19 08:00:56;;;;;;;11.20;1.17;;;15.60;99.90;;;;;;4960340;28;20404;-88
2023/09/19 08:03:22;;;;;;;12.30;1.83;;;15.70;99.90;;;;;;4950028;28;20060;-88
2023/09/19 08:05:48;;;;;;;10.82;1.15;;;15.80;99.90;;;;;;4935019;29;20027;-87
2023/09/19 08:08:14;;;;;;;8.88;1.50;;;15.90;99.90;;;;;;4935787;29;20035;-88
2023/09/19 08:10:42;;;;;;;8.70;0.90;;;15.90;99.90;;;;;;4938871;29;20126;-87
2023/09/19 08:13:11;;;;;;;10.15;1.13;;;16.00;99.90;;;;;;4954122;28;20476;-87
2023/09/19 08:15:43;;;;;;;14.23;2.70;;;16.10;99.90;;;;;;4938602;29;20159;-87
2023/09/19 08:18:11;;;;;;;14.35;1.17;;;16.10;99.90;;;;;;4949077;28;20052;-88
2023/09/19 08:20:37;;;;;;;8.27;1.15;;;16.20;99.90;;;;;;4955561;28;20028;-87
2023/09/19 08:23:03;;;;;;;14.38;1.92;;;16.20;99.90;;;;;;4954565;28;20039;-88
2023/09/19 08:25:29;;;;;;;11.25;1.38;;;16.20;99.90;;;;;;4952326;28;20069;-88
2023/09/19 08:28:01;;;;;;;8.52;1.20;;;16.30;99.90;;;;;;4934760;29;20113;-88
2023/09/19 08:30:27;;;;;;;;;;;16.40;99.90;;;;;;4953647;28;20423;-88
2023/09/19 08:33:03;;;;;;;10.50;2.13;;;16.40;99.90;;;;;;4953854;28;19929;-87
2023/09/19 08:35:28;;;;;;;18.80;2.42;;;16.40;99.90;;;;;;4954492;28;20032;-87
2023/09/19 08:37:55;;;;;;;16.95;1.10;;;16.40;99.90;;;;;;4946546;28;20657;-87
2023/09/19 08:40:21;;;;;;;12.30;2.05;;;16.60;99.90;;;;;;4928533;28;20035;-87
2023/09/19 08:42:50;;;;;;;12.60;1.40;;;16.60;99.90;;;;;;4952285;28;20039;-87
2023/09/19 08:45:16;;;;;;;11.73;1.38;;;16.70;99.90;;;;;;4951586;29;20027;-88
2023/09/19 08:48:05;;;;;;;10.50;1.10;;;16.80;99.90;;;;;;4961523;28;20031;-87
2023/09/19 08:50:33;;;;;;;9.13;1.00;;;16.90;99.90;;;;;;4954014;28;20065;-88
2023/09/19 08:53:10;;;;;;;9.82;0.90;;;16.90;99.90;;;;;;4955275;28;20019;-87
2023/09/19 08:55:37;;;;;;;11.93;1.48;;;17.00;99.90;;;;;;4970057;28;20538;-87
2023/09/19 08:58:06;;;;;;;9.35;1.15;;;17.00;99.90;;;;;;4962935;28;20074;-87
2023/09/19 09:00:32;;;;;;;7.78;1.45;;;17.00;99.90;;;;;;4944725;29;20035;-88
2023/09/19 09:03:00;;;;;;;15.77;1.65;;;17.10;99.90;;;;;;4948367;28;20035;-87
2023/09/19 09:05:27;;;;;;;9.88;1.30;;;17.20;99.90;;;;;;4935687;28;20039;-88
2023/09/19 09:07:56;;;;;;;14.90;1.15;;;17.30;99.90;;;;;;4965312;28;20023;-87
2023/09/19 09:10:22;;;;;;;10.15;0.90;;;17.40;99.90;;;;;;4955307;28;20051;-88
2023/09/19 09:12:57;;;;;;;13.40;1.90;;;17.50;99.90;;;;;;4939372;29;20019;-87
2023/09/19 09:15:24;;;;;;;9.95;0.90;;;17.50;99.90;;;;;;4954825;28;20043;-87
2023/09/19 09:17:52;;;;;;;9.93;0.95;;;17.50;99.90;;;;;;4961655;28;20024;-88
2023/09/19 09:20:18;;;;;;;14.82;1.60;;;17.60;99.90;;;;;;4937394;28;20046;-88
2023/09/19 09:22:55;;;;;;;13.82;1.20;;;17.70;99.90;;;;;;4956349;28;20035;-88
2023/09/19 09:25:25;;;;;;;7.88;1.17;;;17.90;99.90;;;;;;4960136;28;20067;-87
2023/09/19 09:28:01;;;;;;;9.40;1.10;;;17.80;99.90;;;;;;4965375;28;20027;-87
2023/09/19 09:30:37;;;;;;;9.02;1.00;;;17.80;99.90;;;;;;4927034;29;20027;-88
2023/09/19 09:33:13;;;;;;;15.82;1.15;;;17.80;99.90;;;;;;4953365;28;20046;-87
2023/09/19 09:35:59;;;;;;;8.00;0.93;;;17.80;99.90;;;;;;4936329;29;20042;-85
2023/09/19 09:38:31;;;;;;;9.00;1.05;;;17.80;99.90;;;;;;4950465;28;20115;-86
2023/09/19 09:41:26;;;;;;;12.15;1.40;;;18.00;99.90;;;;;;4939861;28;20395;-86
2023/09/19 09:43:48;;;;;;;11.75;1.40;;;18.00;99.90;;;;;;4955211;28;20046;-87
2023/09/19 09:51:57;;;;;;;8.45;1.13;;;18.00;99.90;;;;;;4962442;28;20069;-87
2023/09/19 09:54:24;;;;;;;8.63;1.05;;;18.10;99.90;;;;;;4955252;28;20035;-87
2023/09/19 09:56:53;;;;;;;9.18;0.98;;;18.20;99.90;;;;;;4942663;29;20118;-87
2023/09/19 09:59:23;;;;;;;16.63;2.15;;;18.20;99.90;;;;;;4955576;28;20031;-87
2023/09/19 10:01:49;;;;;;;11.88;1.27;;;18.30;99.90;;;;;;4937263;29;20043;-87
2023/09/19 10:04:35;;;;;;;6.95;1.10;;;18.20;99.90;;;;;;4950889;28;20027;-87
2023/09/19 10:07:05;;;;;;;9.40;1.05;;;18.40;99.90;;;;;;4953579;28;20027;-85
2023/09/19 10:09:44;;;;;;;14.00;2.00;;;18.50;99.90;;;;;;4938250;29;20047;-87
2023/09/19 10:12:12;;;;;;;15.90;2.00;;;18.60;99.90;;;;;;4954719;28;20400;-87
2023/09/19 10:14:42;;;;;;;10.63;1.60;;;18.70;99.90;;;;;;4945788;28;20042;-87
2023/09/19 10:17:10;;;;;;;8.85;0.80;;;18.80;99.90;;;;;;4956768;28;20430;-87
2023/09/19 10:19:57;;;;;;;9.48;1.25;;;18.80;99.90;;;;;;4954281;28;20106;-87
2023/09/19 10:22:24;;;;;;;7.32;0.77;;;18.90;99.90;;;;;;4933102;28;20376;-87
2023/09/19 10:24:56;;;;;;;7.80;1.45;;;18.90;99.90;;;;;;4954708;28;20027;-87
2023/09/19 10:27:26;;;;;;;8.02;1.15;;;18.90;99.90;;;;;;4955086;28;20031;-86
2023/09/19 10:29:55;;;;;;;15.20;1.13;;;18.90;99.90;;;;;;4968616;28;20035;-87
2023/09/19 10:32:23;;;;;;;12.15;1.63;;;19.00;99.90;;;;;;4954192;28;20055;-87
2023/09/19 10:34:49;;;;;;;11.25;0.80;;;19.00;99.90;;;;;;4951794;28;20045;-87
2023/09/19 10:37:22;;;;;;;8.38;1.00;;;19.00;99.90;;;;;;4954686;28;20027;-87
2023/09/19 10:39:49;;;;;;;11.35;1.02;;;19.00;99.90;;;;;;4952994;28;20121;-87
2023/09/19 10:42:19;;;;;;;5.20;0.90;;;19.00;99.90;;;;;;4952979;28;20081;-87
2023/09/19 10:44:53;;;;;;;9.05;1.10;;;19.10;99.90;;;;;;4936508;29;20394;-87
2023/09/19 10:47:20;;;;;;;11.20;1.40;;;19.20;99.90;;;;;;4953166;28;20390;-86
2023/09/19 10:49:46;;;;;;;7.25;0.80;;;19.20;99.90;;;;;;4951536;28;20027;-87
2023/09/19 10:52:19;;;;;;;12.80;1.17;;;19.20;99.90;;;;;;4952845;28;20027;-86
2023/09/19 10:54:52;;;;;;;8.57;0.93;;;19.20;99.90;;;;;;4950415;29;20043;-86
2023/09/19 10:57:24;;;;;;;7.38;1.05;;;19.20;99.90;;;;;;4952403;28;20029;-87
2023/09/19 11:00:26;;;;;;;8.15;1.15;;;19.30;99.90;;;;;;4941452;28;20408;-85
2023/09/19 11:03:22;;;;;;;7.35;0.75;;;19.50;99.90;;;;;;4947846;28;20488;-86
2023/09/19 11:06:15;;;;;;;6.63;0.88;;;19.70;99.90;;;;;;4934425;29;20032;-86
2023/09/19 11:09:15;;;;;;;6.07;0.85;;;19.60;99.90;;;;;;4951900;28;20042;-87
2023/09/19 11:11:47;;;;;;;10.13;1.50;;;19.60;99.90;;;;;;4967566;28;20034;-87
2023/09/19 11:14:25;;;;;;;8.65;0.90;;;19.50;99.90;;;;;;4934887;29;20027;-87
2023/09/19 11:17:15;;;;;;;8.57;1.08;;;19.50;99.90;;;;;;4935971;29;20118;-87
2023/09/19 11:23:22;;;;;;;8.27;0.82;;;19.60;99.90;;;;;;4954789;28;20065;-87
2023/09/19 11:25:48;;;;;;;7.68;0.70;;;19.60;99.90;;;;;;4911069;29;20067;-86
2023/09/19 11:28:17;;;;;;;5.50;0.70;;;19.50;99.90;;;;;;4955619;28;20130;-86
2023/09/19 11:30:48;;;;;;;12.65;1.25;;;19.60;99.90;;;;;;4947498;28;20051;-87
2023/09/19 11:33:41;;;;;;;6.65;0.85;;;19.60;99.90;;;;;;4937251;29;20061;-86
2023/09/19 11:36:24;;;;;;;7.03;1.30;;;19.70;99.90;;;;;;4954190;29;20134;-86
2023/09/19 11:38:52;;;;;;;8.35;0.70;;;19.80;99.90;;;;;;4955960;28;20074;-86
2023/09/19 11:41:21;;;;;;;10.25;1.05;;;19.80;99.90;;;;;;4957954;29;20046;-86
2023/09/19 11:43:58;;;;;;;7.95;0.60;;;19.80;99.90;;;;;;4955006;28;20040;-87
2023/09/19 11:46:24;;;;;;;9.75;0.85;;;19.90;99.90;;;;;;4932889;29;20125;-87
2023/09/19 11:48:51;;;;;;;7.03;1.25;;;19.90;99.90;;;;;;4953987;28;20078;-87
2023/09/19 11:51:23;;;;;;;8.25;0.63;;;20.00;99.90;;;;;;4963273;28;20031;-86
2023/09/19 11:54:02;;;;;;;10.00;0.80;;;20.00;99.90;;;;;;4941849;29;20400;-86
2023/09/19 11:56:28;;;;;;;9.02;0.45;;;20.00;99.90;;;;;;4935907;28;20279;-86
2023/09/19 11:58:57;;;;;;;5.13;0.70;;;19.90;99.90;;;;;;4937587;29;20106;-88
2023/09/19 12:01:32;;;;;;;13.80;0.75;;;19.90;99.90;;;;;;4955566;28;20506;-87
2023/09/19 12:03:59;;;;;;;7.15;0.75;;;19.90;99.90;;;;;;4953088;28;20058;-86
2023/09/19 12:06:29;;;;;;;5.30;0.50;;;19.90;99.90;;;;;;4955126;29;20034;-86
2023/09/19 12:08:57;;;;;;;6.88;0.70;;;20.00;99.90;;;;;;4955897;28;20342;-88
2023/09/19 12:11:23;;;;;;;4.93;0.40;;;20.00;99.90;;;;;;4929091;29;20023;-86
2023/09/19 12:13:49;;;;;;;5.93;0.50;;;20.00;99.90;;;;;;4960990;28;20031;-86
2023/09/19 12:16:16;;;;;;;2.47;0.30;;;20.10;99.90;;;;;;4939339;29;20067;-86
2023/09/19 12:18:44;;;;;;;3.90;0.40;;;20.20;99.90;;;;;;4953718;28;20039;-86
2023/09/19 12:21:31;;;;;;;4.10;0.45;;;20.20;99.90;;;;;;4958783;28;20364;-86
2023/09/19 12:24:06;;;;;;;5.70;0.50;;;20.30;99.90;;;;;;4958390;28;20037;-86
2023/09/19 12:26:40;;;;;;;6.88;0.82;;;20.50;99.90;;;;;;4949851;28;20028;-88
2023/09/19 12:29:12;;;;;;;3.83;0.40;;;20.60;99.90;;;;;;4932276;28;20028;-87
2023/09/19 12:31:50;;;;;;;3.80;0.40;;;20.70;99.90;;;;;;4947573;29;20036;-86
2023/09/19 12:34:22;;;;;;;4.55;0.30;;;20.90;99.90;;;;;;4964111;28;20035;-87
2023/09/19 12:36:48;;;;;;;3.70;0.50;;;20.90;99.90;;;;;;4960044;28;20031;-88
2023/09/19 12:39:25;;;;;;;3.75;0.50;;;20.80;99.90;;;;;;4956092;29;20114;-87
2023/09/19 12:41:52;;;;;;;4.30;0.82;;;20.70;99.90;;;;;;4952676;29;20369;-88
2023/09/19 12:44:18;;;;;;;3.45;0.30;;;20.60;99.90;;;;;;4959114;28;20023;-88
2023/09/19 12:46:45;;;;;;;6.07;0.60;;;20.50;99.90;;;;;;4966352;28;20088;-86
2023/09/19 12:49:18;;;;;;;3.17;0.40;;;20.40;99.90;;;;;;4941621;28;20023;-87
2023/09/19 12:51:45;;;;;;;2.90;0.35;;;20.30;99.90;;;;;;4962735;28;20472;-88
2023/09/19 12:54:11;;;;;;;3.33;1.27;;;20.20;99.90;;;;;;4954229;29;20563;-87
2023/09/19 12:56:44;;;;;;;5.25;0.43;;;20.10;99.90;;;;;;4953874;28;20114;-88
2023/09/19 12:59:13;;;;;;;3.65;0.40;;;20.10;99.90;;;;;;4947479;29;20043;-88
2023/09/19 13:01:46;;;;;;;4.35;0.38;;;20.30;99.90;;;;;;4935295;29;20027;-86